Time;durP1;ratioP1;P1;durP2;ratioP2;P2;SDS_P1;SDS_P2;PMS_P1;PMS_P2;Temp;Humidity;BMP_temperature;BMP_pressure;BME280_temperature;BME280_humidity;BME280_pressure;Samples;Min_cycle;Max_cycle;Signal;HPM_P1;HPM_P2
2023/06/11 00:00:28;;;;;;;8.38;5.47;;;20.20;99.90;;;;;;6188768;23;20081;-70
2023/06/11 00:02:54;;;;;;;9.65;6.15;;;20.20;99.90;;;;;;6188395;23;20021;-68
2023/06/11 00:05:21;;;;;;;8.35;6.07;;;20.10;99.90;;;;;;6187064;23;20025;-69
2023/06/11 00:07:48;;;;;;;8.93;6.28;;;20.10;99.90;;;;;;6189163;23;20060;-69
2023/06/11 00:10:15;;;;;;;7.75;6.07;;;20.10;99.90;;;;;;6186777;23;20048;-69
2023/06/11 00:12:42;;;;;;;9.60;5.93;;;20.20;99.90;;;;;;6189047;23;20021;-70
2023/06/11 00:15:08;;;;;;;8.60;6.43;;;20.20;99.90;;;;;;6187152;23;20021;-69
2023/06/11 00:17:33;;;;;;;10.80;6.70;;;20.20;99.90;;;;;;6188597;23;20052;-69
2023/06/11 00:20:08;;;;;;;7.80;6.43;;;20.30;99.90;;;;;;6188033;23;20022;-69
2023/06/11 00:22:37;;;;;;;9.55;6.05;;;20.30;99.90;;;;;;6187220;23;20052;-69
2023/06/11 00:25:04;;;;;;;8.93;6.63;;;20.40;99.90;;;;;;6162027;23;20021;-70
2023/06/11 00:27:30;;;;;;;10.88;6.40;;;20.40;99.90;;;;;;6186319;23;20024;-69
2023/06/11 00:29:56;;;;;;;8.65;6.60;;;20.40;99.90;;;;;;6189092;23;20116;-70
2023/06/11 00:32:21;;;;;;;7.55;5.93;;;20.40;99.90;;;;;;6186818;23;20028;-71
2023/06/11 00:34:47;;;;;;;10.60;6.28;;;20.40;99.90;;;;;;6188687;23;20441;-69
2023/06/11 00:37:13;;;;;;;8.15;6.03;;;20.50;99.90;;;;;;6189988;23;20017;-69
2023/06/11 00:39:39;;;;;;;7.70;5.68;;;20.40;99.90;;;;;;6188885;23;20029;-69
2023/06/11 00:42:05;;;;;;;11.68;6.43;;;20.40;99.90;;;;;;6190456;23;20048;-69
2023/06/11 00:44:34;;;;;;;9.57;5.68;;;20.40;99.90;;;;;;6188830;23;20021;-69
2023/06/11 00:47:00;;;;;;;7.22;5.78;;;20.40;99.90;;;;;;6190996;23;20065;-68
2023/06/11 00:49:29;;;;;;;6.43;5.28;;;20.40;99.90;;;;;;6189455;23;20066;-68
2023/06/11 00:51:55;;;;;;;9.60;6.13;;;20.30;99.90;;;;;;6190155;23;20028;-69
2023/06/11 00:54:21;;;;;;;8.55;5.40;;;20.30;99.90;;;;;;6191087;23;20351;-70
2023/06/11 00:56:46;;;;;;;6.15;5.15;;;20.30;99.90;;;;;;6189260;23;20055;-69
2023/06/11 00:59:15;;;;;;;7.00;6.15;;;20.30;99.90;;;;;;6190976;23;20083;-69
2023/06/11 01:01:48;;;;;;;6.57;5.90;;;20.30;99.90;;;;;;6189731;23;20017;-69
2023/06/11 01:04:23;;;;;;;6.90;5.78;;;20.30;99.90;;;;;;6200811;23;20074;-69
2023/06/11 01:06:52;;;;;;;7.07;5.88;;;20.20;99.90;;;;;;6193885;23;20488;-69
2023/06/11 01:09:22;;;;;;;8.18;5.88;;;20.20;99.90;;;;;;6199186;23;20064;-69
2023/06/11 01:11:49;;;;;;;7.03;6.10;;;20.20;99.90;;;;;;6189276;23;20028;-69
2023/06/11 01:14:16;;;;;;;6.65;5.85;;;20.20;99.90;;;;;;6159915;23;20023;-69
2023/06/11 01:16:45;;;;;;;13.07;6.22;;;20.10;99.90;;;;;;6188825;23;20017;-69
2023/06/11 01:19:33;;;;;;;8.85;6.20;;;20.00;99.90;;;;;;6188953;23;20087;-70
2023/06/11 01:22:08;;;;;;;14.38;6.47;;;20.10;99.90;;;;;;6192499;23;20462;-69
2023/06/11 01:24:43;;;;;;;8.68;5.90;;;20.00;99.90;;;;;;6190301;23;20079;-70
2023/06/11 01:27:25;;;;;;;7.53;6.32;;;20.00;99.90;;;;;;6186473;23;20076;-69
2023/06/11 01:29:52;;;;;;;;;;;20.00;99.90;;;;;;6189709;23;20068;-68
2023/06/11 01:32:23;;;;;;;8.50;6.40;;;19.80;99.90;;;;;;6186822;23;19920;-68
2023/06/11 01:34:49;;;;;;;6.60;5.82;;;19.90;99.90;;;;;;6187928;23;20057;-69
2023/06/11 01:37:15;;;;;;;7.22;6.38;;;19.80;99.90;;;;;;6188349;23;20032;-68
2023/06/11 01:39:45;;;;;;;7.65;5.80;;;19.80;99.90;;;;;;6186854;23;20017;-68
2023/06/11 01:42:12;;;;;;;8.15;6.20;;;19.80;99.90;;;;;;6188934;23;20020;-69
2023/06/11 01:44:37;;;;;;;7.00;5.35;;;19.80;99.90;;;;;;6186220;23;20021;-69
2023/06/11 01:47:03;;;;;;;10.13;6.82;;;19.70;99.90;;;;;;6188489;23;20055;-69
2023/06/11 01:49:29;;;;;;;7.82;5.90;;;19.60;99.90;;;;;;6186408;23;20028;-69
2023/06/11 01:51:55;;;;;;;10.82;6.30;;;19.60;99.90;;;;;;6188057;23;20023;-68
2023/06/11 01:54:21;;;;;;;9.18;5.85;;;19.60;99.90;;;;;;6188082;23;20025;-70
2023/06/11 01:56:50;;;;;;;9.18;6.43;;;19.40;99.90;;;;;;6186782;23;20108;-68
2023/06/11 01:59:17;;;;;;;6.68;5.95;;;19.40;99.90;;;;;;6188732;23;20036;-68
2023/06/11 02:01:43;;;;;;;8.30;6.78;;;19.50;99.90;;;;;;6185886;23;20017;-68
2023/06/11 02:04:09;;;;;;;7.50;5.97;;;19.40;99.90;;;;;;6188620;23;20398;-69
2023/06/11 02:06:34;;;;;;;9.35;5.75;;;19.30;99.90;;;;;;6186587;23;20017;-70
2023/06/11 02:09:00;;;;;;;9.18;6.22;;;19.30;99.90;;;;;;6188673;23;20069;-68
2023/06/11 02:11:26;;;;;;;8.68;6.38;;;19.30;99.90;;;;;;6189060;23;20028;-68
2023/06/11 02:13:52;;;;;;;12.32;6.45;;;19.30;99.90;;;;;;6188411;23;20052;-68
2023/06/11 02:16:17;;;;;;;9.45;6.55;;;19.20;99.90;;;;;;6188291;23;20454;-69
2023/06/11 02:18:43;;;;;;;7.75;5.95;;;19.20;99.90;;;;;;6186869;23;20048;-69
2023/06/11 02:21:09;;;;;;;12.65;6.00;;;19.30;99.90;;;;;;6189181;23;20067;-69
2023/06/11 02:23:38;;;;;;;10.95;6.60;;;19.20;99.90;;;;;;6186788;23;20024;-69
2023/06/11 02:26:03;;;;;;;8.13;6.43;;;19.20;99.90;;;;;;6188231;23;20016;-69
2023/06/11 02:28:29;;;;;;;7.45;6.15;;;19.10;99.90;;;;;;6187772;23;20402;-68
2023/06/11 02:30:58;;;;;;;7.70;6.55;;;19.10;99.90;;;;;;6186810;23;20020;-69
2023/06/11 02:33:26;;;;;;;8.67;6.73;;;19.10;99.90;;;;;;6188544;23;20148;-69
2023/06/11 02:35:52;;;;;;;10.02;6.55;;;19.10;99.90;;;;;;6185987;23;20029;-69
2023/06/11 02:38:17;;;;;;;11.50;6.72;;;19.00;99.90;;;;;;6189091;23;20025;-69
2023/06/11 02:40:43;;;;;;;8.20;7.22;;;19.00;99.90;;;;;;6187166;23;20370;-68
2023/06/11 02:43:09;;;;;;;9.13;7.47;;;18.90;99.90;;;;;;6189616;23;20024;-69
2023/06/11 02:45:35;;;;;;;7.35;6.15;;;18.90;99.90;;;;;;6189190;23;20043;-70
2023/06/11 02:48:01;;;;;;;9.00;6.55;;;18.90;99.90;;;;;;6188701;23;20025;-70
2023/06/11 02:50:27;;;;;;;15.95;6.90;;;18.90;99.90;;;;;;6190147;23;20028;-69
2023/06/11 02:52:53;;;;;;;9.05;6.85;;;18.90;99.90;;;;;;6187986;23;20021;-70
2023/06/11 02:55:19;;;;;;;11.10;7.20;;;18.90;99.90;;;;;;6190652;23;20048;-69
2023/06/11 02:57:44;;;;;;;8.48;7.03;;;18.80;99.90;;;;;;6187756;23;20021;-69
2023/06/11 03:00:11;;;;;;;8.77;6.93;;;18.80;99.90;;;;;;6189685;23;20021;-69
2023/06/11 03:02:37;;;;;;;9.43;7.50;;;18.80;99.90;;;;;;6188003;23;20175;-68
2023/06/11 03:05:06;;;;;;;8.35;6.82;;;18.80;99.90;;;;;;6186797;23;20021;-68
2023/06/11 03:07:32;;;;;;;8.38;7.18;;;18.80;99.90;;;;;;6162036;23;20048;-68
2023/06/11 03:10:03;;;;;;;8.60;7.03;;;18.80;99.90;;;;;;6185844;23;20048;-68
2023/06/11 03:12:29;;;;;;;12.27;7.30;;;18.80;99.90;;;;;;6188241;23;20035;-69
2023/06/11 03:14:55;;;;;;;10.13;7.18;;;18.70;99.90;;;;;;6185575;23;20021;-69
2023/06/11 03:17:20;;;;;;;8.50;7.03;;;18.80;99.90;;;;;;6187111;23;20028;-68
2023/06/11 03:19:46;;;;;;;10.52;6.55;;;18.70;99.90;;;;;;6186541;23;20021;-68
2023/06/11 03:22:12;;;;;;;10.45;7.10;;;18.60;99.90;;;;;;6186485;23;20844;-68
2023/06/11 03:24:37;;;;;;;10.05;7.53;;;18.70;99.90;;;;;;6187090;23;20025;-69
2023/06/11 03:27:03;;;;;;;13.10;7.90;;;18.60;99.90;;;;;;6184866;23;20028;-69
2023/06/11 03:29:29;;;;;;;11.85;7.05;;;18.60;99.90;;;;;;6161368;23;20052;-70
2023/06/11 03:31:55;;;;;;;10.15;7.25;;;18.60;99.90;;;;;;6185684;23;20021;-67
2023/06/11 03:34:20;;;;;;;8.63;7.72;;;18.60;99.90;;;;;;6189858;23;20052;-68
2023/06/11 03:36:46;;;;;;;13.35;7.57;;;18.60;99.90;;;;;;6161697;23;20021;-69
2023/06/11 03:39:12;;;;;;;11.23;8.52;;;18.60;99.90;;;;;;6188631;23;20020;-69
2023/06/11 03:41:38;;;;;;;7.95;6.93;;;18.60;99.90;;;;;;6189041;23;20029;-69
2023/06/11 03:44:03;;;;;;;12.63;6.95;;;18.50;99.90;;;;;;6187353;23;20021;-68
2023/06/11 03:46:29;;;;;;;9.40;7.32;;;18.60;99.90;;;;;;6189552;23;20021;-70
2023/06/11 03:48:56;;;;;;;12.52;7.82;;;18.60;99.90;;;;;;6187356;23;20525;-69
2023/06/11 03:51:22;;;;;;;9.40;7.47;;;18.60;99.90;;;;;;6189328;23;20031;-69
2023/06/11 03:53:48;;;;;;;10.93;7.80;;;18.70;99.90;;;;;;6188003;23;20028;-69
2023/06/11 03:56:13;;;;;;;10.30;7.72;;;18.70;99.90;;;;;;6189168;23;20017;-69
2023/06/11 03:58:39;;;;;;;9.95;7.40;;;18.70;99.90;;;;;;6200391;23;20021;-69
2023/06/11 04:01:05;;;;;;;10.43;7.85;;;18.80;99.90;;;;;;6194351;23;20036;-69
2023/06/11 04:03:31;;;;;;;10.30;7.35;;;18.90;99.90;;;;;;6192096;23;20028;-70
2023/06/11 04:05:57;;;;;;;8.88;7.82;;;18.90;99.90;;;;;;6188111;23;20013;-70
2023/06/11 04:08:23;;;;;;;9.43;7.28;;;18.90;99.90;;;;;;6189553;23;20017;-68
2023/06/11 04:10:48;;;;;;;12.20;8.00;;;19.00;99.90;;;;;;6187137;23;20503;-68
2023/06/11 04:13:14;;;;;;;8.27;7.45;;;19.10;99.90;;;;;;6188766;23;20021;-69
2023/06/11 04:15:40;;;;;;;12.38;7.97;;;19.20;99.90;;;;;;6188393;23;20029;-69
2023/06/11 04:18:05;;;;;;;12.00;8.23;;;19.20;99.90;;;;;;6187188;23;20028;-68
2023/06/11 04:20:31;;;;;;;11.75;7.43;;;19.30;99.90;;;;;;6189102;23;20021;-68
2023/06/11 04:22:58;;;;;;;8.70;7.80;;;19.40;99.90;;;;;;6186553;23;20013;-69
2023/06/11 04:25:24;;;;;;;10.45;8.00;;;19.50;99.90;;;;;;6188287;23;20544;-69
2023/06/11 04:27:52;;;;;;;9.65;7.93;;;19.50;99.90;;;;;;6160109;23;20025;-70
2023/06/11 04:30:18;;;;;;;10.02;7.38;;;19.50;99.90;;;;;;6188759;23;20020;-69
2023/06/11 04:32:44;;;;;;;9.77;8.57;;;19.60;99.90;;;;;;6187974;23;20021;-69
2023/06/11 04:35:10;;;;;;;10.05;8.40;;;19.70;99.90;;;;;;6187165;23;20020;-70
2023/06/11 04:37:40;;;;;;;10.73;8.77;;;19.80;99.90;;;;;;6162481;23;20031;-69
2023/06/11 04:40:10;;;;;;;9.70;8.18;;;19.90;99.90;;;;;;6186177;23;20024;-68
2023/06/11 04:42:40;;;;;;;9.02;7.43;;;19.90;99.90;;;;;;6188926;23;20099;-69
2023/06/11 04:45:07;;;;;;;9.55;8.55;;;19.90;99.90;;;;;;6186222;23;20044;-69
2023/06/11 04:47:36;;;;;;;10.32;8.63;;;20.10;99.90;;;;;;6187976;23;20021;-68
2023/06/11 04:50:04;;;;;;;9.40;7.70;;;20.20;99.90;;;;;;6187748;23;20068;-68
2023/06/11 04:52:43;;;;;;;9.35;8.07;;;20.20;99.90;;;;;;6186535;23;20076;-69
2023/06/11 04:55:09;;;;;;;9.63;8.45;;;20.20;99.90;;;;;;6188684;23;20399;-69
2023/06/11 04:57:36;;;;;;;10.02;8.15;;;20.40;99.90;;;;;;6185982;23;20021;-68
2023/06/11 05:00:08;;;;;;;9.80;8.40;;;20.50;99.90;;;;;;6188255;23;20053;-70
2023/06/11 05:02:37;;;;;;;10.65;8.00;;;20.60;99.90;;;;;;6187136;23;20031;-69
2023/06/11 05:05:08;;;;;;;8.57;7.68;;;20.70;99.90;;;;;;6186906;23;20024;-69
2023/06/11 05:07:34;;;;;;;11.07;8.88;;;20.70;99.90;;;;;;6188716;23;20017;-68
2023/06/11 05:10:02;;;;;;;10.55;8.70;;;20.70;99.90;;;;;;6185176;23;20031;-69
2023/06/11 05:12:31;;;;;;;9.55;7.68;;;20.90;99.90;;;;;;6188298;23;20024;-70
2023/06/11 05:14:57;;;;;;;10.98;7.80;;;21.00;99.90;;;;;;6186484;23;20330;-69
2023/06/11 05:17:24;;;;;;;10.07;8.02;;;21.00;99.90;;;;;;6188069;23;20017;-70
2023/06/11 05:19:52;;;;;;;10.15;8.27;;;21.00;99.90;;;;;;6187325;23;20084;-69
2023/06/11 05:22:19;;;;;;;10.38;7.28;;;21.10;99.90;;;;;;6186827;23;20435;-69
2023/06/11 05:24:47;;;;;;;9.68;8.63;;;21.20;99.90;;;;;;6187892;23;20048;-69
2023/06/11 05:27:13;;;;;;;11.10;7.93;;;21.20;99.90;;;;;;6186042;23;20028;-70
2023/06/11 05:29:39;;;;;;;10.27;8.35;;;21.30;99.90;;;;;;6188666;23;20659;-69
2023/06/11 05:32:08;;;;;;;9.23;8.32;;;21.30;99.90;;;;;;6186383;23;20017;-70
2023/06/11 05:34:34;;;;;;;9.23;8.05;;;21.30;99.90;;;;;;6188297;23;20017;-70
2023/06/11 05:37:01;;;;;;;11.35;8.23;;;21.30;99.90;;;;;;6160996;23;20115;-69
2023/06/11 05:39:26;;;;;;;10.23;8.85;;;21.50;99.90;;;;;;6186863;23;20025;-70
2023/06/11 05:41:52;;;;;;;11.65;8.50;;;21.50;99.90;;;;;;6188872;23;20388;-70
2023/06/11 05:44:20;;;;;;;10.50;8.10;;;21.60;99.90;;;;;;6185836;23;20025;-68
2023/06/11 05:46:46;;;;;;;9.82;8.50;;;21.60;99.90;;;;;;6188302;23;20021;-68
2023/06/11 05:49:13;;;;;;;10.18;8.15;;;21.60;99.90;;;;;;6186235;23;20029;-68
2023/06/11 05:51:39;;;;;;;9.27;8.13;;;21.70;99.90;;;;;;6187776;23;20116;-68
2023/06/11 05:54:05;;;;;;;9.00;8.10;;;21.60;99.90;;;;;;6187285;23;20028;-68
2023/06/11 05:56:31;;;;;;;10.13;8.38;;;21.70;99.90;;;;;;6186693;23;20025;-68
2023/06/11 05:58:56;;;;;;;8.60;7.68;;;21.70;99.90;;;;;;6188272;23;20079;-69
2023/06/11 06:01:22;;;;;;;8.38;7.50;;;21.80;99.90;;;;;;6185418;23;20028;-69
2023/06/11 06:03:48;;;;;;;9.18;7.43;;;21.80;99.90;;;;;;6188288;23;20017;-70
2023/06/11 06:06:13;;;;;;;10.68;7.80;;;21.80;99.90;;;;;;6185463;23;20024;-69
2023/06/11 06:08:40;;;;;;;9.98;8.10;;;21.80;99.90;;;;;;6188036;23;20048;-69
2023/06/11 06:11:10;;;;;;;9.13;7.38;;;21.90;99.90;;;;;;6186546;23;20024;-69
2023/06/11 06:13:36;;;;;;;9.02;8.07;;;22.00;99.90;;;;;;6186351;23;20017;-69
2023/06/11 06:16:02;;;;;;;10.48;7.45;;;22.10;99.90;;;;;;6187972;23;20025;-69
2023/06/11 06:18:32;;;;;;;12.20;8.70;;;22.20;99.90;;;;;;6185501;23;20014;-69
2023/06/11 06:21:00;;;;;;;10.55;8.10;;;22.30;99.90;;;;;;6187211;23;20084;-69
2023/06/11 06:23:26;;;;;;;9.30;8.30;;;22.30;99.90;;;;;;6185699;23;20028;-69
2023/06/11 06:25:52;;;;;;;10.82;7.38;;;22.40;99.90;;;;;;6187522;23;20025;-69
2023/06/11 06:28:17;;;;;;;10.38;7.65;;;22.50;99.90;;;;;;6186794;23;20028;-69
2023/06/11 06:30:43;;;;;;;16.77;7.43;;;22.40;99.90;;;;;;6186401;23;20084;-69
2023/06/11 06:33:10;;;;;;;9.70;7.47;;;22.50;99.90;;;;;;6188347;23;20077;-69
2023/06/11 06:35:35;;;;;;;9.70;7.80;;;22.60;99.90;;;;;;6185604;23;20025;-69
2023/06/11 06:38:05;;;;;;;12.57;8.00;;;22.70;99.90;;;;;;6188699;23;20017;-70
2023/06/11 06:40:31;;;;;;;10.70;8.77;;;22.70;99.90;;;;;;6185956;23;20032;-69
2023/06/11 06:42:57;;;;;;;10.93;7.72;;;22.80;99.90;;;;;;6188309;23;20021;-68
2023/06/11 06:45:22;;;;;;;8.40;7.47;;;22.80;99.90;;;;;;6191221;23;20029;-68
2023/06/11 06:47:48;;;;;;;13.45;8.75;;;22.90;99.90;;;;;;6198497;23;20021;-68
2023/06/11 06:50:14;;;;;;;8.10;7.03;;;22.90;99.90;;;;;;6188500;23;20013;-68
2023/06/11 06:52:40;;;;;;;8.20;6.97;;;23.00;99.90;;;;;;6187177;23;20040;-68
2023/06/11 06:55:08;;;;;;;10.55;7.47;;;23.20;99.90;;;;;;6189760;23;20017;-74
2023/06/11 06:57:39;;;;;;;10.45;7.53;;;23.10;99.90;;;;;;6187074;23;20028;-73
2023/06/11 07:00:07;;;;;;;10.33;7.67;;;23.10;99.90;;;;;;6188941;23;20040;-74
2023/06/11 07:02:33;;;;;;;11.07;7.00;;;23.30;99.90;;;;;;6160792;23;20445;-73
2023/06/11 07:05:00;;;;;;;9.80;6.82;;;23.30;99.90;;;;;;6186782;23;20080;-73
2023/06/11 07:07:26;;;;;;;11.00;7.60;;;23.30;99.90;;;;;;6189168;23;20032;-73
2023/06/11 07:09:51;;;;;;;10.60;6.75;;;23.50;99.90;;;;;;6187646;23;20337;-73
2023/06/11 07:12:18;;;;;;;8.88;6.45;;;23.40;99.90;;;;;;6190098;23;20032;-73
2023/06/11 07:14:47;;;;;;;10.88;7.03;;;23.60;99.90;;;;;;6187498;23;20024;-73
2023/06/11 07:17:16;;;;;;;7.38;6.68;;;23.70;99.90;;;;;;6189749;23;20059;-74
2023/06/11 07:19:42;;;;;;;9.77;6.72;;;23.80;99.90;;;;;;6188066;23;20048;-74
2023/06/11 07:22:07;;;;;;;8.48;7.13;;;23.80;99.90;;;;;;6188355;23;20013;-73
2023/06/11 07:24:35;;;;;;;9.75;7.22;;;23.90;99.90;;;;;;6161566;23;20517;-74
2023/06/11 07:27:03;;;;;;;7.88;6.97;;;23.90;99.90;;;;;;6186633;23;20025;-74
2023/06/11 07:29:32;;;;;;;7.95;7.13;;;24.10;99.90;;;;;;6189965;23;20048;-74
2023/06/11 07:31:57;;;;;;;9.10;7.20;;;24.10;99.90;;;;;;6187307;23;20025;-73
2023/06/11 07:34:23;;;;;;;9.15;7.38;;;24.00;99.90;;;;;;6189538;23;20028;-74
2023/06/11 07:36:51;;;;;;;10.77;7.13;;;24.00;99.90;;;;;;6188623;23;20032;-73
2023/06/11 07:39:17;;;;;;;9.93;7.30;;;23.90;99.90;;;;;;6188610;23;20029;-73
2023/06/11 07:41:46;;;;;;;8.35;6.65;;;24.00;99.90;;;;;;6189849;23;20023;-74
2023/06/11 07:44:11;;;;;;;9.15;7.35;;;24.00;99.90;;;;;;6187123;23;20021;-76
2023/06/11 07:46:37;;;;;;;8.73;6.93;;;24.20;99.90;;;;;;6189920;23;20017;-74
2023/06/11 07:49:05;;;;;;;9.50;7.25;;;24.20;99.90;;;;;;6187135;23;20643;-73
2023/06/11 07:51:31;;;;;;;9.68;6.82;;;24.30;99.90;;;;;;6189128;23;20021;-74
2023/06/11 07:54:04;;;;;;;7.53;6.72;;;24.20;99.90;;;;;;6188044;23;20061;-75
2023/06/11 07:56:33;;;;;;;7.45;6.45;;;24.50;99.90;;;;;;6161741;23;20021;-74
2023/06/11 07:59:01;;;;;;;7.05;6.32;;;24.70;99.90;;;;;;6189723;23;20042;-74
2023/06/11 08:01:27;;;;;;;13.02;6.88;;;24.90;99.90;;;;;;6187255;23;20036;-73
2023/06/11 08:03:52;;;;;;;7.78;6.60;;;25.00;99.90;;;;;;6189657;23;20021;-76
2023/06/11 08:06:18;;;;;;;8.50;7.35;;;25.10;99.90;;;;;;6187552;23;20056;-75
2023/06/11 08:08:44;;;;;;;13.70;6.97;;;25.10;99.90;;;;;;6189352;23;20017;-70
2023/06/11 08:11:10;;;;;;;9.23;6.53;;;25.20;99.90;;;;;;6187480;23;20060;-69
2023/06/11 08:13:35;;;;;;;8.10;6.90;;;25.40;99.90;;;;;;6187499;23;20021;-70
2023/06/11 08:16:02;;;;;;;9.25;7.45;;;25.40;99.90;;;;;;6189024;23;20417;-70
2023/06/11 08:18:28;;;;;;;10.45;6.28;;;25.40;99.90;;;;;;6185948;23;20156;-70
2023/06/11 08:21:04;;;;;;;10.90;6.90;;;25.50;99.90;;;;;;6189915;23;20021;-69
2023/06/11 08:23:29;;;;;;;7.57;6.88;;;25.50;99.90;;;;;;6186142;23;20738;-69
2023/06/11 08:25:58;;;;;;;8.05;6.47;;;25.70;99.90;;;;;;6188870;23;20028;-70
2023/06/11 08:28:25;;;;;;;8.93;6.80;;;25.90;99.90;;;;;;6188192;23;20048;-69
2023/06/11 08:30:50;;;;;;;6.55;5.75;;;25.90;99.90;;;;;;6187242;23;20032;-70
2023/06/11 08:33:17;;;;;;;8.90;5.93;;;26.00;99.90;;;;;;6189211;23;20112;-70
2023/06/11 08:35:43;;;;;;;7.35;5.90;;;26.00;99.90;;;;;;6186724;23;20021;-70
2023/06/11 08:38:11;;;;;;;8.60;6.40;;;26.10;99.90;;;;;;6189889;23;20164;-70
2023/06/11 08:40:40;;;;;;;8.68;5.25;;;26.30;99.90;;;;;;6186985;23;20032;-70
2023/06/11 08:43:09;;;;;;;9.55;5.68;;;26.30;99.90;;;;;;6189050;23;20021;-71
2023/06/11 08:45:36;;;;;;;9.60;5.95;;;26.20;99.80;;;;;;6187530;23;20032;-70
2023/06/11 08:48:04;;;;;;;10.20;6.25;;;26.30;99.40;;;;;;6187638;23;20017;-71
2023/06/11 08:50:31;;;;;;;6.85;5.80;;;26.40;99.70;;;;;;6189085;23;20024;-71
2023/06/11 08:53:01;;;;;;;9.60;6.30;;;26.40;99.90;;;;;;6186488;23;20025;-71
2023/06/11 08:55:29;;;;;;;6.03;5.47;;;26.50;99.30;;;;;;6189245;23;20025;-70
2023/06/11 08:57:57;;;;;;;8.40;5.72;;;26.50;99.10;;;;;;6186943;23;20033;-70
2023/06/11 09:00:23;;;;;;;9.05;6.03;;;26.60;99.00;;;;;;6188479;23;20021;-69
2023/06/11 09:02:50;;;;;;;8.48;5.68;;;26.60;99.10;;;;;;6187864;23;20028;-69
2023/06/11 09:05:19;;;;;;;8.70;5.80;;;26.70;98.60;;;;;;6187140;23;20031;-69
2023/06/11 09:07:52;;;;;;;6.43;5.30;;;26.70;98.80;;;;;;6189091;23;20021;-69
2023/06/11 09:10:19;;;;;;;7.22;5.57;;;26.80;98.60;;;;;;6159967;23;20024;-70
2023/06/11 09:12:48;;;;;;;6.95;5.82;;;27.00;99.00;;;;;;6189091;23;20036;-69
2023/06/11 09:15:17;;;;;;;6.70;5.45;;;27.00;98.40;;;;;;6186105;23;20096;-69
2023/06/11 09:17:46;;;;;;;8.80;5.38;;;27.10;98.40;;;;;;6188236;23;20601;-69
2023/06/11 09:20:16;;;;;;;6.70;5.38;;;27.10;98.80;;;;;;6188025;23;20021;-70
2023/06/11 09:22:43;;;;;;;8.00;5.70;;;27.20;98.50;;;;;;6186596;23;20155;-69
2023/06/11 09:25:10;;;;;;;8.23;5.35;;;27.10;98.20;;;;;;6188783;23;20025;-69
2023/06/11 09:27:37;;;;;;;6.70;5.20;;;27.10;97.80;;;;;;6186873;23;20020;-70
2023/06/11 09:30:11;;;;;;;8.07;5.30;;;27.20;98.20;;;;;;6189110;23;20052;-70
2023/06/11 09:32:40;;;;;;;6.13;4.97;;;27.20;97.40;;;;;;6196242;23;20021;-69
2023/06/11 09:35:08;;;;;;;7.22;5.40;;;27.50;97.30;;;;;;6193889;23;20867;-70
2023/06/11 09:37:44;;;;;;;6.97;5.00;;;27.40;97.60;;;;;;6189129;23;20019;-70
2023/06/11 09:40:12;;;;;;;7.95;5.43;;;27.40;97.30;;;;;;6187065;23;20506;-69
2023/06/11 09:42:38;;;;;;;6.18;4.78;;;27.50;96.80;;;;;;6188122;23;20024;-68
2023/06/11 09:45:16;;;;;;;8.55;5.47;;;27.50;96.60;;;;;;6186461;23;20081;-69
2023/06/11 09:47:44;;;;;;;5.60;5.10;;;27.50;96.10;;;;;;6188299;23;20084;-69
2023/06/11 09:50:12;;;;;;;6.95;5.00;;;27.60;97.00;;;;;;6188217;23;20087;-68
2023/06/11 09:52:39;;;;;;;6.97;5.13;;;27.60;96.60;;;;;;6160147;23;20021;-69
2023/06/11 09:55:10;;;;;;;6.35;5.28;;;27.70;96.80;;;;;;6189235;23;20131;-69
2023/06/11 09:57:38;;;;;;;6.80;5.38;;;27.70;96.30;;;;;;6186669;23;20079;-68
2023/06/11 10:00:14;;;;;;;6.43;5.22;;;27.70;96.90;;;;;;6162503;23;20025;-68
2023/06/11 10:02:45;;;;;;;6.90;5.13;;;27.80;96.20;;;;;;6187262;23;20094;-68
2023/06/11 10:05:12;;;;;;;7.18;5.30;;;27.80;96.30;;;;;;6187165;23;20059;-69
2023/06/11 10:08:07;;;;;;;8.57;4.72;;;27.80;96.10;;;;;;6188807;23;20020;-68
2023/06/11 10:10:42;;;;;;;7.50;5.30;;;28.00;95.00;;;;;;6183770;23;20025;-69
2023/06/11 10:13:08;;;;;;;6.10;5.15;;;28.10;95.50;;;;;;6188294;23;20041;-69
2023/06/11 10:15:36;;;;;;;6.15;4.90;;;28.20;95.80;;;;;;6187282;23;20017;-67
2023/06/11 10:18:02;;;;;;;5.35;4.55;;;28.20;95.40;;;;;;6186992;23;20068;-69
2023/06/11 10:20:35;;;;;;;9.60;5.25;;;28.20;95.10;;;;;;6188285;23;20428;-70
2023/06/11 10:23:11;;;;;;;5.28;4.43;;;28.00;94.00;;;;;;6185793;23;20021;-68
2023/06/11 10:25:39;;;;;;;5.45;4.40;;;28.00;94.60;;;;;;6188444;23;20036;-70
2023/06/11 10:28:06;;;;;;;6.93;4.88;;;28.30;95.10;;;;;;6186292;23;20052;-70
2023/06/11 10:30:32;;;;;;;5.57;4.65;;;28.30;94.10;;;;;;6187934;23;20017;-69
2023/06/11 10:32:59;;;;;;;6.97;5.22;;;28.30;93.90;;;;;;6188015;23;20036;-68
2023/06/11 10:35:31;;;;;;;6.57;4.70;;;28.20;94.10;;;;;;6186788;23;20028;-69
2023/06/11 10:38:06;;;;;;;6.70;4.95;;;28.20;94.60;;;;;;6189052;23;20040;-69
2023/06/11 10:40:37;;;;;;;5.20;4.70;;;28.30;93.80;;;;;;6186372;23;20028;-69
2023/06/11 10:43:21;;;;;;;5.43;4.63;;;28.60;94.20;;;;;;6189863;23;20047;-69
2023/06/11 10:46:01;;;;;;;5.32;4.80;;;28.60;93.80;;;;;;6190259;23;20096;-69
2023/06/11 10:48:28;;;;;;;5.55;4.82;;;28.60;93.00;;;;;;6188535;23;20040;-69
2023/06/11 10:51:12;;;;;;;8.43;5.18;;;28.50;93.30;;;;;;6190507;23;20053;-69
2023/06/11 10:53:40;;;;;;;6.35;4.93;;;28.70;93.20;;;;;;6188863;23;20124;-69
2023/06/11 10:56:12;;;;;;;5.97;5.28;;;28.70;93.60;;;;;;6190002;23;20020;-69
2023/06/11 10:58:39;;;;;;;6.93;4.93;;;28.60;93.10;;;;;;6190302;23;20048;-69
2023/06/11 11:01:07;;;;;;;5.15;4.55;;;28.60;93.40;;;;;;6188713;23;20028;-70
2023/06/11 11:03:34;;;;;;;5.22;4.60;;;28.70;93.50;;;;;;6190553;23;20339;-70
2023/06/11 11:06:00;;;;;;;6.10;4.88;;;28.90;93.30;;;;;;6187817;23;20020;-69
2023/06/11 11:08:26;;;;;;;9.63;5.35;;;28.90;93.20;;;;;;6190708;23;20052;-70
2023/06/11 11:10:56;;;;;;;6.57;4.40;;;28.80;93.20;;;;;;6188259;23;20017;-69
2023/06/11 11:13:23;;;;;;;5.82;5.20;;;28.90;92.70;;;;;;6189735;23;20035;-68
2023/06/11 11:15:50;;;;;;;5.45;4.95;;;29.00;92.00;;;;;;6189800;23;20017;-69
2023/06/11 11:18:16;;;;;;;7.13;4.55;;;29.00;92.70;;;;;;6188334;23;20299;-68
2023/06/11 11:20:44;;;;;;;7.82;5.43;;;29.10;92.80;;;;;;6189775;23;20128;-68
2023/06/11 11:23:10;;;;;;;7.38;5.63;;;29.00;92.00;;;;;;6187041;23;20017;-70
2023/06/11 11:25:36;;;;;;;6.88;5.22;;;29.20;91.90;;;;;;6162509;23;20264;-70
2023/06/11 11:28:02;;;;;;;5.72;4.95;;;29.10;92.20;;;;;;6187726;23;20023;-70
2023/06/11 11:30:29;;;;;;;7.13;5.00;;;29.10;92.50;;;;;;6189240;23;20108;-70
2023/06/11 11:32:56;;;;;;;6.93;5.68;;;29.20;92.80;;;;;;6189003;23;20366;-70
2023/06/11 11:35:22;;;;;;;6.35;5.18;;;29.00;91.00;;;;;;6188026;23;20045;-70
2023/06/11 11:37:50;;;;;;;6.15;4.90;;;28.80;91.40;;;;;;6190405;23;20075;-71
2023/06/11 11:40:20;;;;;;;6.57;4.97;;;28.90;91.80;;;;;;6186603;23;20073;-69
2023/06/11 11:42:49;;;;;;;8.40;5.30;;;28.90;90.70;;;;;;6189938;23;20039;-69
2023/06/11 11:45:19;;;;;;;7.90;4.45;;;29.10;91.50;;;;;;6187444;23;20477;-71
2023/06/11 11:47:51;;;;;;;9.55;5.63;;;29.30;91.50;;;;;;6188779;23;20028;-70
2023/06/11 11:50:25;;;;;;;;;;;29.30;91.50;;;;;;6190033;23;20028;-69
2023/06/11 11:53:14;;;;;;;8.05;5.25;;;29.20;91.30;;;;;;6187353;23;20375;-67
2023/06/11 11:55:45;;;;;;;8.50;5.85;;;29.10;91.40;;;;;;6189682;23;20048;-68
2023/06/11 11:58:12;;;;;;;11.18;5.20;;;29.00;91.90;;;;;;6188283;23;20080;-67
2023/06/11 12:00:49;;;;;;;6.43;4.95;;;28.80;91.30;;;;;;6189216;23;20013;-65
2023/06/11 12:03:18;;;;;;;6.20;4.82;;;28.80;90.60;;;;;;6189936;23;20057;-74
2023/06/11 12:05:59;;;;;;;7.75;5.00;;;28.90;91.00;;;;;;6187068;23;20040;-70
2023/06/11 12:08:28;;;;;;;7.07;5.30;;;29.10;91.30;;;;;;6189635;23;20069;-70
2023/06/11 12:10:55;;;;;;;5.25;4.55;;;28.90;91.40;;;;;;6188088;23;20024;-67
2023/06/11 12:13:21;;;;;;;5.30;4.80;;;28.80;91.30;;;;;;6138454;23;20985;-71
2023/06/11 12:15:47;;;;;;;7.00;5.20;;;28.90;91.10;;;;;;6190063;23;20025;-69
2023/06/11 12:18:13;;;;;;;6.95;5.13;;;28.90;90.30;;;;;;6188679;23;20020;-70
2023/06/11 12:20:39;;;;;;;6.78;5.20;;;28.90;90.90;;;;;;6194633;23;20055;-71
2023/06/11 12:23:05;;;;;;;5.85;5.25;;;28.70;90.40;;;;;;6197624;23;20017;-71
2023/06/11 12:25:32;;;;;;;5.95;5.35;;;28.70;90.70;;;;;;6190728;23;20025;-70
2023/06/11 12:27:59;;;;;;;5.93;4.95;;;28.80;90.70;;;;;;6189567;23;20020;-69
2023/06/11 12:30:24;;;;;;;7.03;5.30;;;29.00;91.00;;;;;;6191304;23;20024;-72
2023/06/11 12:32:51;;;;;;;7.55;4.78;;;29.10;91.00;;;;;;6189800;23;20088;-69
2023/06/11 12:35:17;;;;;;;9.30;5.03;;;29.20;91.10;;;;;;6188400;23;20031;-69
2023/06/11 12:37:45;;;;;;;8.57;5.32;;;29.30;90.70;;;;;;6189705;23;20017;-71
2023/06/11 12:40:14;;;;;;;7.15;5.05;;;29.30;90.30;;;;;;6187156;23;20049;-70
2023/06/11 12:42:40;;;;;;;8.38;4.85;;;29.40;90.30;;;;;;6163157;23;20021;-70
2023/06/11 12:45:09;;;;;;;7.53;4.82;;;29.30;90.50;;;;;;6187723;23;20021;-71
2023/06/11 12:47:36;;;;;;;7.15;6.07;;;29.30;89.00;;;;;;6189125;23;20028;-71